createdAt,value
2018-01-28T00:02:07.355Z,2.10
2018-01-28T00:04:35.647Z,2.10
2018-01-28T00:07:03.192Z,2.10
2018-01-28T00:09:31.545Z,2.10
2018-01-28T00:11:59.100Z,2.10
2018-01-28T00:14:26.638Z,2.10
2018-01-28T00:16:54.197Z,2.10
2018-01-28T00:19:21.740Z,2.10
2018-01-28T00:21:49.352Z,2.10
2018-01-28T00:24:17.656Z,2.20
2018-01-28T00:26:45.220Z,2.20
2018-01-28T00:29:12.735Z,2.20
2018-01-28T00:31:40.313Z,2.20
2018-01-28T00:34:08.609Z,2.20
2018-01-28T00:36:36.140Z,2.20
2018-01-28T00:39:04.465Z,2.30
2018-01-28T00:41:32.010Z,2.20
2018-01-28T00:43:59.608Z,2.30
2018-01-28T00:46:27.153Z,2.30
2018-01-28T00:48:54.717Z,2.30
2018-01-28T00:51:22.241Z,2.30
2018-01-28T00:53:49.820Z,2.30
2018-01-28T00:56:17.362Z,2.30
2018-01-28T00:58:44.937Z,2.30
2018-01-28T01:01:12.521Z,2.30
2018-01-28T01:03:40.080Z,2.30
2018-01-28T01:06:07.621Z,2.30
2018-01-28T01:08:35.221Z,2.30
2018-01-28T01:11:03.516Z,2.30
2018-01-28T01:13:31.090Z,2.30
2018-01-28T01:15:58.620Z,2.30
2018-01-28T01:18:26.953Z,2.30
2018-01-28T01:20:54.480Z,2.30
2018-01-28T01:23:22.029Z,2.30
2018-01-28T01:25:49.589Z,2.30
2018-01-28T01:28:17.126Z,2.30
2018-01-28T01:30:45.449Z,2.30
2018-01-28T01:33:12.990Z,2.30
2018-01-28T01:35:40.589Z,2.30
2018-01-28T01:38:08.125Z,2.30
2018-01-28T01:40:35.686Z,2.30
2018-01-28T01:43:03.227Z,2.30
2018-01-28T01:45:30.793Z,2.30
2018-01-28T01:47:58.325Z,2.30
2018-01-28T01:50:26.690Z,2.30
2018-01-28T01:52:55.836Z,2.30
2018-01-28T01:55:23.396Z,2.30
2018-01-28T01:57:50.937Z,2.20
2018-01-28T02:00:18.514Z,2.20
2018-01-28T02:02:46.048Z,2.20
2018-01-28T02:05:13.584Z,2.20
2018-01-28T02:07:41.914Z,2.20
2018-01-28T02:10:09.449Z,2.20
2018-01-28T02:12:37.000Z,2.20
2018-01-28T02:15:04.536Z,2.20
2018-01-28T02:17:32.867Z,2.20
2018-01-28T02:20:00.396Z,2.10
2018-01-28T02:22:27.966Z,2.20
2018-01-28T02:24:55.507Z,2.20
2018-01-28T02:27:23.105Z,2.20
2018-01-28T02:29:50.637Z,2.20
2018-01-28T02:32:18.246Z,2.20
2018-01-28T02:34:45.789Z,2.10
2018-01-28T02:37:13.363Z,2.10
2018-01-28T02:39:40.892Z,2.10
2018-01-28T02:42:08.428Z,2.10
2018-01-28T02:44:35.984Z,2.00
2018-01-28T02:47:07.528Z,2.00
2018-01-28T02:49:35.088Z,1.90
2018-01-28T02:52:02.617Z,1.90
2018-01-28T02:54:30.191Z,1.80
2018-01-28T02:56:58.490Z,1.70
2018-01-28T02:59:26.050Z,1.70
2018-01-28T03:01:53.585Z,1.60
2018-01-28T03:04:21.911Z,1.50
2018-01-28T03:06:49.457Z,1.50
2018-01-28T03:09:17.029Z,1.40
2018-01-28T03:11:44.564Z,1.40
2018-01-28T03:14:12.132Z,1.30
2018-01-28T03:16:39.664Z,1.30
2018-01-28T03:19:07.216Z,1.30
2018-01-28T03:21:35.511Z,1.30
2018-01-28T03:24:03.084Z,1.30
2018-01-28T03:26:30.626Z,1.30
2018-01-28T03:28:58.156Z,1.30
2018-01-28T03:31:26.481Z,1.30
2018-01-28T03:33:54.036Z,1.30
2018-01-28T03:36:21.605Z,1.30
2018-01-28T03:38:49.208Z,1.40
2018-01-28T03:41:17.532Z,1.40
2018-01-28T03:43:45.837Z,1.40
2018-01-28T03:46:13.406Z,1.40
2018-01-28T03:48:40.960Z,1.40
2018-01-28T03:51:08.513Z,1.40
2018-01-28T03:53:36.061Z,1.40
2018-01-28T03:56:03.713Z,1.40
2018-01-28T03:58:31.253Z,1.50
2018-01-28T04:00:58.784Z,1.40
2018-01-28T04:03:27.108Z,1.40
2018-01-28T04:05:54.650Z,1.40
2018-01-28T04:08:22.202Z,1.40
2018-01-28T04:10:49.728Z,1.40
2018-01-28T04:13:17.292Z,1.40
2018-01-28T04:15:45.606Z,1.40
2018-01-28T04:18:13.932Z,1.40
2018-01-28T04:20:42.236Z,1.40
2018-01-28T04:23:10.385Z,1.40
2018-01-28T04:25:38.689Z,1.40
2018-01-28T04:28:06.254Z,1.40
2018-01-28T04:30:33.797Z,1.40
2018-01-28T04:33:01.367Z,1.50
2018-01-28T04:35:28.901Z,1.50
2018-01-28T04:37:57.227Z,1.40
2018-01-28T04:40:24.753Z,1.40
2018-01-28T04:42:52.316Z,1.40
2018-01-28T04:45:19.858Z,1.30
2018-01-28T04:47:47.460Z,1.30
2018-01-28T04:50:15.005Z,1.20
2018-01-28T04:52:42.540Z,1.20
2018-01-28T04:55:10.097Z,1.10
2018-01-28T04:57:38.401Z,1.00
2018-01-28T05:00:05.964Z,1.00
2018-01-28T05:02:33.492Z,1.00
2018-01-28T05:05:01.045Z,1.00
2018-01-28T05:07:29.336Z,1.10
2018-01-28T05:09:56.908Z,1.10
2018-01-28T05:12:24.452Z,1.20
2018-01-28T05:14:52.001Z,1.20
2018-01-28T05:17:19.532Z,1.20
2018-01-28T05:19:47.093Z,1.30
2018-01-28T05:22:14.625Z,1.30
2018-01-28T05:24:42.212Z,1.40
2018-01-28T05:27:10.539Z,1.60
2018-01-28T05:29:38.074Z,1.60
2018-01-28T05:32:05.632Z,1.70
2018-01-28T05:34:33.178Z,1.80
2018-01-28T05:37:00.761Z,1.80
2018-01-28T05:39:28.304Z,1.80
2018-01-28T05:41:55.870Z,1.80
2018-01-28T05:44:23.411Z,1.80
2018-01-28T05:46:51.733Z,2.00
2018-01-28T05:49:19.260Z,2.00
2018-01-28T05:51:46.817Z,2.00
2018-01-28T05:54:14.349Z,2.00
2018-01-28T05:56:41.907Z,2.10
2018-01-28T05:59:09.448Z,2.20
2018-01-28T06:01:37.005Z,2.30
2018-01-28T06:04:04.542Z,2.30
2018-01-28T06:06:32.103Z,2.40
2018-01-28T06:08:59.645Z,2.50
2018-01-28T06:11:27.198Z,2.60
2018-01-28T06:13:54.724Z,2.80
2018-01-28T06:16:24.055Z,3.20
2018-01-28T06:18:51.585Z,3.20
2018-01-28T06:21:19.908Z,3.90
2018-01-28T06:23:47.442Z,3.90
2018-01-28T06:26:14.997Z,4.10
2018-01-28T06:28:42.532Z,4.50
2018-01-28T06:31:10.844Z,4.90
2018-01-28T06:33:38.382Z,4.80
2018-01-28T06:36:05.940Z,4.90
2018-01-28T06:38:34.257Z,4.90
2018-01-28T06:41:01.788Z,4.80
2018-01-28T06:43:29.355Z,4.80
2018-01-28T06:45:56.897Z,4.70
2018-01-28T06:48:24.454Z,4.70
2018-01-28T06:50:51.981Z,4.80
2018-01-28T06:53:19.528Z,4.90
2018-01-28T06:55:47.056Z,5.00
2018-01-28T06:58:14.613Z,5.00
2018-01-28T07:00:42.152Z,5.10
2018-01-28T07:03:09.701Z,5.20
2018-01-28T07:05:37.240Z,5.30
2018-01-28T07:08:04.796Z,5.40
2018-01-28T07:10:32.332Z,5.30
2018-01-28T07:12:59.890Z,5.40
2018-01-28T07:15:27.432Z,5.40
2018-01-28T07:17:54.993Z,5.50
2018-01-28T07:20:22.541Z,5.50
2018-01-28T07:22:50.104Z,5.50
2018-01-28T07:25:17.636Z,5.60
2018-01-28T07:27:45.193Z,5.60
2018-01-28T07:30:12.726Z,5.60
2018-01-28T07:32:41.066Z,5.60
2018-01-28T07:35:08.625Z,5.60
2018-01-28T07:37:36.188Z,5.60
2018-01-28T07:40:03.718Z,5.70
2018-01-28T07:42:31.278Z,5.70
2018-01-28T07:44:58.812Z,5.80
2018-01-28T07:47:27.130Z,5.80
2018-01-28T07:49:54.657Z,5.80
2018-01-28T07:52:22.228Z,5.90
2018-01-28T07:54:49.760Z,5.90
2018-01-28T07:57:17.326Z,6.00
2018-01-28T07:59:45.620Z,6.00
2018-01-28T08:02:13.168Z,6.00
2018-01-28T08:04:40.704Z,6.10
2018-01-28T08:07:09.082Z,6.20
2018-01-28T08:12:48.497Z,6.30
2018-01-28T08:15:16.176Z,6.30
2018-01-28T08:17:43.854Z,6.40
2018-01-28T08:20:11.496Z,6.50
2018-01-28T08:22:39.155Z,6.60
2018-01-28T08:25:07.556Z,6.60
2018-01-28T08:27:35.794Z,6.60
2018-01-28T08:30:03.575Z,6.70
2018-01-28T08:32:32.126Z,6.70
2018-01-28T08:34:59.783Z,6.70
2018-01-28T08:37:27.406Z,6.70
2018-01-28T08:39:55.875Z,6.70
2018-01-28T08:42:23.663Z,6.70
2018-01-28T08:44:51.420Z,6.70
2018-01-28T08:53:20.599Z,6.70
2018-01-28T08:55:48.289Z,6.70
2018-01-28T08:58:16.757Z,6.70
2018-01-28T09:00:44.478Z,6.70
2018-01-28T09:03:12.133Z,6.70
2018-01-28T09:05:39.776Z,6.90
2018-01-28T09:08:07.435Z,7.00
2018-01-28T09:10:35.153Z,7.10
2018-01-28T09:13:02.844Z,7.20
2018-01-28T09:15:30.527Z,7.20
2018-01-28T09:17:58.196Z,7.10
2018-01-28T09:20:25.837Z,7.10
2018-01-28T09:22:53.521Z,7.10
2018-01-28T09:25:21.218Z,7.20
2018-01-28T09:27:48.823Z,7.30
2018-01-28T09:30:16.506Z,7.30
2018-01-28T09:32:44.145Z,7.30
2018-01-28T09:35:11.871Z,7.40
2018-01-28T09:37:39.498Z,7.40
2018-01-28T09:40:07.206Z,7.40
2018-01-28T09:42:34.918Z,7.40
2018-01-28T09:45:02.785Z,7.40
2018-01-28T09:47:30.496Z,7.30
2018-01-28T09:49:58.956Z,7.40
2018-01-28T09:52:26.684Z,7.30
2018-01-28T09:54:54.369Z,7.40
2018-01-28T09:57:22.046Z,7.50
2018-01-28T09:59:49.771Z,7.50
2018-01-28T10:02:17.571Z,7.60
2018-01-28T10:04:45.223Z,7.70
2018-01-28T10:07:12.928Z,7.80
2018-01-28T10:09:41.383Z,7.80
2018-01-28T10:12:09.139Z,7.80
2018-01-28T10:14:36.918Z,7.80
2018-01-28T10:17:04.651Z,7.90
2018-01-28T10:19:33.213Z,8.00
2018-01-28T10:22:01.042Z,8.00
2018-01-28T10:24:29.548Z,8.10
2018-01-28T10:26:57.247Z,8.10
2018-01-28T10:29:24.901Z,8.10
2018-01-28T10:31:52.653Z,8.20
2018-01-28T10:34:20.452Z,8.20
2018-01-28T10:36:48.287Z,8.30
2018-01-28T10:39:16.001Z,8.30
2018-01-28T10:41:43.710Z,8.30
2018-01-28T10:44:11.456Z,8.50
2018-01-28T10:46:39.130Z,8.50
2018-01-28T10:49:06.949Z,8.50
2018-01-28T10:51:34.752Z,8.40
2018-01-28T10:54:02.472Z,8.40
2018-01-28T10:56:30.886Z,8.40
2018-01-28T10:58:58.525Z,8.30
2018-01-28T11:01:26.400Z,8.40
2018-01-28T11:03:54.247Z,8.50
2018-01-28T11:06:21.992Z,8.40
2018-01-28T11:08:49.676Z,8.50
2018-01-28T11:11:17.341Z,8.50
2018-01-28T11:13:45.036Z,8.60
2018-01-28T11:16:13.567Z,8.50
2018-01-28T11:18:42.028Z,8.60
2018-01-28T11:21:09.744Z,8.60
2018-01-28T11:23:37.472Z,8.70
2018-01-28T11:26:05.325Z,9.00
2018-01-28T11:28:33.026Z,9.40
2018-01-28T11:31:00.698Z,9.50
2018-01-28T11:33:28.362Z,9.90
2018-01-28T11:35:56.083Z,10.30
2018-01-28T11:38:24.644Z,10.30
2018-01-28T11:40:52.374Z,10.30
2018-01-28T11:43:19.936Z,10.50
2018-01-28T11:45:47.484Z,10.30
2018-01-28T11:48:15.038Z,10.20
2018-01-28T11:50:43.404Z,9.50
2018-01-28T11:53:11.701Z,9.50
2018-01-28T11:55:39.256Z,9.50
2018-01-28T11:58:06.785Z,9.30
2018-01-28T12:00:34.329Z,9.50
2018-01-28T12:03:01.848Z,9.30
2018-01-28T12:05:29.401Z,9.20
2018-01-28T12:07:56.967Z,9.00
2018-01-28T12:10:24.558Z,9.00
2018-01-28T12:12:52.077Z,8.90
2018-01-28T12:15:19.605Z,8.80
2018-01-28T12:17:47.925Z,8.80
2018-01-28T12:20:15.462Z,8.80
2018-01-28T12:22:43.017Z,8.80
2018-01-28T12:25:10.598Z,8.70
2018-01-28T12:27:38.281Z,8.70
2018-01-28T12:30:05.845Z,8.60
2018-01-28T12:32:33.398Z,8.60
2018-01-28T12:35:00.924Z,8.70
2018-01-28T12:37:28.468Z,8.70
2018-01-28T12:39:56.053Z,8.70
2018-01-28T12:42:23.602Z,8.70
2018-01-28T12:44:51.154Z,8.80
2018-01-28T12:47:18.715Z,8.80
2018-01-28T12:49:46.242Z,8.80
2018-01-28T12:52:14.561Z,8.90
2018-01-28T12:54:42.130Z,8.90
2018-01-28T12:57:09.738Z,8.90
2018-01-28T12:59:37.293Z,8.90
2018-01-28T13:02:04.886Z,8.90
2018-01-28T13:04:32.415Z,9.00
2018-01-28T13:07:00.786Z,9.00
2018-01-28T13:09:28.308Z,9.00
2018-01-28T13:11:55.836Z,9.00
2018-01-28T13:14:23.386Z,9.00
2018-01-28T13:16:50.917Z,9.00
2018-01-28T13:19:18.466Z,9.00
2018-01-28T13:21:46.005Z,9.10
2018-01-28T13:24:13.603Z,9.20
2018-01-28T13:26:41.894Z,9.20
2018-01-28T13:29:09.502Z,9.20
2018-01-28T13:31:37.029Z,9.20
2018-01-28T13:34:05.828Z,9.20
2018-01-28T13:36:33.495Z,9.20
2018-01-28T13:39:01.040Z,9.30
2018-01-28T13:41:28.568Z,9.20
2018-01-28T13:43:56.892Z,9.10
2018-01-28T13:46:24.457Z,9.10
2018-01-28T13:48:52.028Z,9.10
2018-01-28T13:51:19.608Z,9.00
2018-01-28T13:53:47.149Z,8.90
2018-01-28T13:56:14.714Z,8.90
2018-01-28T13:58:42.308Z,8.90
2018-01-28T14:01:10.674Z,8.80
2018-01-28T14:03:39.001Z,8.70
2018-01-28T14:06:06.593Z,8.70
2018-01-28T14:08:34.119Z,8.60
2018-01-28T14:11:01.721Z,8.60
2018-01-28T14:13:30.010Z,8.40
2018-01-28T14:15:58.318Z,8.40
2018-01-28T14:18:25.832Z,8.40
2018-01-28T14:20:54.149Z,8.40
2018-01-28T14:23:21.780Z,8.50
2018-01-28T14:25:50.092Z,8.40
2018-01-28T14:28:18.416Z,8.50
2018-01-28T14:30:46.021Z,8.50
2018-01-28T14:33:13.583Z,8.40
2018-01-28T14:35:41.129Z,8.40
2018-01-28T14:38:08.836Z,8.40
2018-01-28T14:40:36.392Z,8.50
2018-01-28T14:43:03.968Z,8.40
2018-01-28T14:45:31.501Z,8.50
2018-01-28T14:47:59.050Z,8.50
2018-01-28T14:50:26.805Z,8.50
2018-01-28T14:52:54.388Z,8.60
2018-01-28T14:55:21.974Z,8.60
2018-01-28T14:57:50.301Z,8.60
2018-01-28T15:00:18.070Z,8.60
2018-01-28T15:02:45.657Z,8.60
2018-01-28T15:05:13.267Z,8.50
2018-01-28T15:07:40.868Z,8.60
2018-01-28T15:10:08.401Z,8.60
2018-01-28T15:12:36.339Z,8.50
2018-01-28T15:15:03.927Z,8.50
2018-01-28T15:17:31.662Z,8.50
2018-01-28T15:19:59.253Z,8.50
2018-01-28T15:22:26.867Z,8.50
2018-01-28T15:24:55.160Z,8.40
2018-01-28T15:27:22.801Z,8.40
2018-01-28T15:29:51.152Z,8.40
2018-01-28T15:32:18.725Z,8.40
2018-01-28T15:34:46.303Z,8.40
2018-01-28T15:37:21.544Z,8.40
2018-01-28T15:39:49.128Z,8.30
2018-01-28T15:42:16.718Z,8.40
2018-01-28T15:44:44.300Z,8.40
2018-01-28T15:47:11.890Z,8.40
2018-01-28T15:49:39.482Z,8.30
2018-01-28T15:52:07.010Z,8.30
2018-01-28T15:54:34.557Z,8.30
2018-01-28T15:57:02.141Z,8.30
2018-01-28T15:59:29.688Z,8.30
2018-01-28T16:01:57.222Z,8.30
2018-01-28T16:04:25.538Z,8.20
2018-01-28T16:06:54.126Z,8.20
2018-01-28T16:09:21.706Z,8.20
2018-01-28T16:11:49.284Z,8.30
2018-01-28T16:14:16.880Z,8.30
2018-01-28T16:16:44.405Z,8.30
2018-01-28T16:19:12.020Z,8.20
2018-01-28T16:21:39.546Z,8.20
2018-01-28T16:24:07.923Z,8.20
2018-01-28T16:26:36.258Z,8.20
2018-01-28T16:29:03.804Z,8.20
2018-01-28T16:31:31.342Z,8.20
2018-01-28T16:33:58.896Z,8.20
2018-01-28T16:36:26.688Z,8.20
2018-01-28T16:38:54.264Z,8.20
2018-01-28T16:41:21.849Z,8.20
2018-01-28T16:43:49.400Z,8.20
2018-01-28T16:46:17.717Z,8.20
2018-01-28T16:48:45.534Z,8.10
2018-01-28T16:51:13.234Z,8.10
2018-01-28T16:53:40.893Z,8.20
2018-01-28T16:56:08.636Z,8.10
2018-01-28T16:58:36.189Z,8.10
2018-01-28T17:01:04.147Z,8.10
2018-01-28T17:03:31.693Z,8.10
2018-01-28T17:06:00.117Z,8.10
2018-01-28T17:08:28.660Z,8.10
2018-01-28T17:10:56.255Z,8.10
2018-01-28T17:13:23.780Z,8.10
2018-01-28T17:15:51.351Z,8.10
2018-01-28T17:18:18.907Z,8.10
2018-01-28T17:20:47.266Z,8.20
2018-01-28T17:23:15.823Z,8.20
2018-01-28T17:25:44.218Z,8.20
2018-01-28T17:28:11.774Z,8.20
2018-01-28T17:30:39.436Z,8.20
2018-01-28T17:33:07.035Z,8.20
2018-01-28T17:35:41.341Z,8.30
2018-01-28T17:38:09.762Z,8.20
2018-01-28T17:40:37.312Z,8.20
2018-01-28T17:43:05.213Z,8.30
2018-01-28T17:45:32.737Z,8.30
2018-01-28T17:48:00.348Z,8.30
2018-01-28T17:50:27.885Z,8.30
2018-01-28T17:52:55.488Z,8.20
2018-01-28T17:55:23.914Z,8.20
2018-01-28T17:57:51.482Z,8.20
2018-01-28T18:00:19.021Z,8.20
2018-01-28T18:02:46.632Z,8.20
2018-01-28T18:05:14.224Z,8.20
2018-01-28T18:07:41.864Z,8.20
2018-01-28T18:10:10.178Z,8.20
2018-01-28T18:12:37.755Z,8.20
2018-01-28T18:15:05.305Z,8.20
2018-01-28T18:20:43.848Z,8.20
2018-01-28T18:23:11.451Z,8.20
2018-01-28T18:25:39.800Z,8.10
2018-01-28T18:28:07.330Z,8.10
2018-01-28T18:30:34.890Z,8.10
2018-01-28T18:33:02.464Z,8.20
2018-01-28T18:35:30.013Z,8.10
2018-01-28T18:37:57.545Z,8.10
2018-01-28T18:40:25.147Z,8.10
2018-01-28T18:42:52.752Z,8.10
2018-01-28T18:45:21.109Z,8.00
2018-01-28T18:47:49.461Z,8.00
2018-01-28T18:50:17.062Z,8.00
2018-01-28T18:52:45.411Z,8.00
2018-01-28T18:55:12.955Z,8.00
2018-01-28T18:57:40.531Z,8.00
2018-01-28T19:00:08.142Z,7.90
2018-01-28T19:02:35.709Z,7.90
2018-01-28T19:05:03.316Z,7.90
2018-01-28T19:07:31.044Z,7.90
2018-01-28T19:09:58.735Z,7.80
2018-01-28T19:12:26.316Z,7.80
2018-01-28T19:14:54.638Z,7.80
2018-01-28T19:17:22.205Z,7.70
2018-01-28T19:19:49.791Z,7.80
2018-01-28T19:22:17.328Z,7.70
2018-01-28T19:24:44.925Z,7.70
2018-01-28T19:27:13.264Z,7.60
2018-01-28T19:29:40.876Z,7.60
2018-01-28T19:32:09.216Z,7.70
2018-01-28T19:34:36.787Z,7.70
2018-01-28T19:37:04.395Z,7.70
2018-01-28T19:39:31.964Z,7.70
2018-01-28T19:41:59.559Z,7.70
2018-01-28T19:44:27.126Z,7.70
2018-01-28T19:46:54.731Z,7.60
2018-01-28T19:49:22.312Z,7.60
2018-01-28T19:51:49.912Z,7.60
2018-01-28T19:54:18.261Z,7.60
2018-01-28T19:56:45.856Z,7.70
2018-01-28T19:59:13.443Z,7.70
2018-01-28T20:01:41.760Z,7.60
2018-01-28T20:04:09.361Z,7.60
2018-01-28T20:06:36.914Z,7.60
2018-01-28T20:09:05.995Z,7.60
2018-01-28T20:11:34.352Z,7.60
2018-01-28T20:14:01.924Z,7.60
2018-01-28T20:16:29.545Z,7.60
2018-01-28T20:18:57.121Z,7.60
2018-01-28T20:21:24.711Z,7.60
2018-01-28T20:23:53.022Z,7.70
2018-01-28T20:26:20.605Z,7.70
2018-01-28T20:28:48.146Z,7.70
2018-01-28T20:31:15.746Z,7.70
2018-01-28T20:33:44.132Z,7.70
2018-01-28T20:36:11.656Z,7.60
2018-01-28T20:38:39.249Z,7.70
2018-01-28T20:41:06.818Z,7.70
2018-01-28T20:43:35.189Z,7.70
2018-01-28T20:46:02.810Z,7.60
2018-01-28T20:48:30.440Z,7.70
2018-01-28T20:50:58.050Z,7.70
2018-01-28T20:53:25.650Z,7.70
2018-01-28T20:55:53.179Z,7.60
2018-01-28T20:58:20.808Z,7.70
2018-01-28T21:00:48.646Z,7.70
2018-01-28T21:03:16.321Z,7.70
2018-01-28T21:05:43.969Z,7.70
2018-01-28T21:08:11.579Z,7.70
2018-01-28T21:10:39.177Z,7.70
2018-01-28T21:13:07.518Z,7.70
2018-01-28T21:15:36.253Z,7.70
2018-01-28T21:18:03.860Z,7.70
2018-01-28T21:20:31.508Z,7.70
2018-01-28T21:22:59.116Z,7.60
2018-01-28T21:25:27.437Z,7.70
2018-01-28T21:27:55.020Z,7.70
2018-01-28T21:30:22.695Z,7.60
2018-01-28T21:32:50.304Z,7.70
2018-01-28T21:35:18.169Z,7.80
2018-01-28T21:37:45.765Z,7.80
2018-01-28T21:40:13.364Z,7.80
2018-01-28T21:42:41.657Z,7.80
2018-01-28T21:45:09.322Z,7.80
2018-01-28T21:47:36.929Z,7.80
2018-01-28T21:50:04.504Z,7.70
2018-01-28T21:52:32.963Z,7.70
2018-01-28T21:55:00.506Z,7.70
2018-01-28T21:57:28.163Z,7.70
2018-01-28T21:59:55.723Z,7.70
2018-01-28T22:02:23.338Z,7.60
2018-01-28T22:04:50.993Z,7.60
2018-01-28T22:07:18.594Z,7.60
2018-01-28T22:09:46.234Z,7.60
2018-01-28T22:12:13.939Z,7.60
2018-01-28T22:14:41.566Z,7.60
2018-01-28T22:17:09.212Z,7.60
2018-01-28T22:19:36.834Z,7.50
2018-01-28T22:22:04.396Z,7.50
2018-01-28T22:24:32.008Z,7.50
2018-01-28T22:26:59.600Z,7.50
2018-01-28T22:29:27.242Z,7.40
2018-01-28T22:31:54.936Z,7.40
2018-01-28T22:34:22.595Z,7.40
2018-01-28T22:36:50.181Z,7.30
2018-01-28T22:39:18.552Z,7.30
2018-01-28T22:41:46.996Z,7.30
2018-01-28T22:44:14.646Z,7.30
2018-01-28T22:46:42.278Z,7.40
2018-01-28T22:49:11.755Z,7.40
2018-01-28T22:51:40.119Z,7.40
2018-01-28T22:54:07.889Z,7.40
2018-01-28T22:56:36.230Z,7.40
2018-01-28T22:59:03.823Z,7.40
2018-01-28T23:01:33.020Z,7.40
2018-01-28T23:04:01.561Z,7.30
2018-01-28T23:06:29.185Z,7.30
2018-01-28T23:08:56.788Z,7.30
2018-01-28T23:11:24.357Z,7.30
2018-01-28T23:13:51.914Z,7.40
2018-01-28T23:16:19.445Z,7.30
2018-01-28T23:18:47.014Z,7.30
2018-01-28T23:21:16.049Z,7.30
2018-01-28T23:23:44.429Z,7.20
2018-01-28T23:26:12.720Z,7.20
2018-01-28T23:28:41.041Z,7.20
2018-01-28T23:31:08.587Z,7.20
2018-01-28T23:33:36.141Z,7.20
2018-01-28T23:36:03.725Z,7.20
2018-01-28T23:38:31.371Z,7.10
2018-01-28T23:40:58.975Z,7.10
2018-01-28T23:43:27.361Z,7.10
2018-01-28T23:45:55.005Z,7.10
2018-01-28T23:48:22.544Z,7.10
2018-01-28T23:50:50.113Z,7.10
2018-01-28T23:53:17.644Z,7.10
2018-01-28T23:55:45.198Z,7.10
2018-01-28T23:58:12.741Z,7.10
